sensor_id;sensor_type;location;lat;lon;timestamp;temperature;humidity
27188;DHT22;14708;50.872;5.306;2022-07-23T00:00:58;24.30;56.80
27188;DHT22;14708;50.872;5.306;2022-07-23T00:03:23;24.30;57.00
27188;DHT22;14708;50.872;5.306;2022-07-23T00:05:50;24.30;56.90
27188;DHT22;14708;50.872;5.306;2022-07-23T00:08:15;24.30;57.00
27188;DHT22;14708;50.872;5.306;2022-07-23T00:10:41;24.30;57.00
27188;DHT22;14708;50.872;5.306;2022-07-23T00:13:07;24.30;57.00
27188;DHT22;14708;50.872;5.306;2022-07-23T00:15:33;24.30;57.20
27188;DHT22;14708;50.872;5.306;2022-07-23T00:17:59;24.30;57.10
27188;DHT22;14708;50.872;5.306;2022-07-23T00:20:24;24.30;56.90
27188;DHT22;14708;50.872;5.306;2022-07-23T00:22:51;24.30;57.10
27188;DHT22;14708;50.872;5.306;2022-07-23T00:25:18;24.30;56.90
27188;DHT22;14708;50.872;5.306;2022-07-23T00:27:44;24.30;57.00
27188;DHT22;14708;50.872;5.306;2022-07-23T00:30:10;24.30;57.20
27188;DHT22;14708;50.872;5.306;2022-07-23T00:32:53;24.30;57.10
27188;DHT22;14708;50.872;5.306;2022-07-23T00:35:20;24.30;57.10
27188;DHT22;14708;50.872;5.306;2022-07-23T00:37:47;24.30;57.10
27188;DHT22;14708;50.872;5.306;2022-07-23T00:40:13;24.30;57.20
27188;DHT22;14708;50.872;5.306;2022-07-23T00:42:39;24.30;57.30
27188;DHT22;14708;50.872;5.306;2022-07-23T00:45:06;24.20;57.10
27188;DHT22;14708;50.872;5.306;2022-07-23T00:47:32;24.30;57.10
27188;DHT22;14708;50.872;5.306;2022-07-23T00:49:57;24.30;57.20
27188;DHT22;14708;50.872;5.306;2022-07-23T00:52:24;24.20;57.10
27188;DHT22;14708;50.872;5.306;2022-07-23T00:54:50;24.30;57.20
27188;DHT22;14708;50.872;5.306;2022-07-23T00:57:16;24.20;57.20
27188;DHT22;14708;50.872;5.306;2022-07-23T00:59:41;24.20;57.20
27188;DHT22;14708;50.872;5.306;2022-07-23T01:02:07;24.20;57.30
27188;DHT22;14708;50.872;5.306;2022-07-23T01:04:33;24.20;57.20
27188;DHT22;14708;50.872;5.306;2022-07-23T01:07:00;24.20;57.20
27188;DHT22;14708;50.872;5.306;2022-07-23T01:09:26;24.20;57.40
27188;DHT22;14708;50.872;5.306;2022-07-23T01:11:52;24.30;57.30
27188;DHT22;14708;50.872;5.306;2022-07-23T01:14:19;24.20;57.30
27188;DHT22;14708;50.872;5.306;2022-07-23T01:16:49;24.20;57.20
27188;DHT22;14708;50.872;5.306;2022-07-23T01:19:16;24.20;57.20
27188;DHT22;14708;50.872;5.306;2022-07-23T01:21:47;24.20;57.30
27188;DHT22;14708;50.872;5.306;2022-07-23T01:24:14;24.20;57.30
27188;DHT22;14708;50.872;5.306;2022-07-23T01:26:43;24.20;57.30
27188;DHT22;14708;50.872;5.306;2022-07-23T01:29:08;24.20;57.30
27188;DHT22;14708;50.872;5.306;2022-07-23T01:31:34;24.20;57.60
27188;DHT22;14708;50.872;5.306;2022-07-23T01:34:00;24.20;57.40
27188;DHT22;14708;50.872;5.306;2022-07-23T01:36:26;24.20;57.50
27188;DHT22;14708;50.872;5.306;2022-07-23T01:38:52;24.20;57.40
27188;DHT22;14708;50.872;5.306;2022-07-23T01:41:17;24.20;57.60
27188;DHT22;14708;50.872;5.306;2022-07-23T01:43:43;24.20;57.60
27188;DHT22;14708;50.872;5.306;2022-07-23T01:46:09;24.20;57.60
27188;DHT22;14708;50.872;5.306;2022-07-23T01:48:35;24.20;58.20
27188;DHT22;14708;50.872;5.306;2022-07-23T01:51:02;24.20;57.40
27188;DHT22;14708;50.872;5.306;2022-07-23T01:53:27;24.20;57.60
27188;DHT22;14708;50.872;5.306;2022-07-23T01:55:56;24.20;57.70
27188;DHT22;14708;50.872;5.306;2022-07-23T01:58:22;24.20;57.60
27188;DHT22;14708;50.872;5.306;2022-07-23T02:00:48;24.10;57.60
27188;DHT22;14708;50.872;5.306;2022-07-23T02:03:13;24.10;57.80
27188;DHT22;14708;50.872;5.306;2022-07-23T02:05:39;24.10;57.70
27188;DHT22;14708;50.872;5.306;2022-07-23T02:08:04;24.10;57.60
27188;DHT22;14708;50.872;5.306;2022-07-23T02:10:30;24.10;57.70
27188;DHT22;14708;50.872;5.306;2022-07-23T02:12:56;24.10;57.70
27188;DHT22;14708;50.872;5.306;2022-07-23T02:15:21;24.10;57.60
27188;DHT22;14708;50.872;5.306;2022-07-23T02:17:47;24.10;57.90
27188;DHT22;14708;50.872;5.306;2022-07-23T02:20:13;24.10;57.70
27188;DHT22;14708;50.872;5.306;2022-07-23T02:22:39;24.10;57.80
27188;DHT22;14708;50.872;5.306;2022-07-23T02:25:06;24.10;57.70
27188;DHT22;14708;50.872;5.306;2022-07-23T02:27:32;24.10;57.70
27188;DHT22;14708;50.872;5.306;2022-07-23T02:29:58;24.10;57.70
27188;DHT22;14708;50.872;5.306;2022-07-23T02:32:23;24.10;57.70
27188;DHT22;14708;50.872;5.306;2022-07-23T02:34:50;24.10;57.70
27188;DHT22;14708;50.872;5.306;2022-07-23T02:37:15;24.10;57.80
27188;DHT22;14708;50.872;5.306;2022-07-23T02:39:41;24.10;57.60
27188;DHT22;14708;50.872;5.306;2022-07-23T02:42:07;24.10;57.70
27188;DHT22;14708;50.872;5.306;2022-07-23T02:44:35;24.10;57.80
27188;DHT22;14708;50.872;5.306;2022-07-23T02:47:03;24.10;57.70
27188;DHT22;14708;50.872;5.306;2022-07-23T02:49:28;24.10;57.80
27188;DHT22;14708;50.872;5.306;2022-07-23T02:51:54;24.10;57.90
27188;DHT22;14708;50.872;5.306;2022-07-23T02:54:20;24.10;57.90
27188;DHT22;14708;50.872;5.306;2022-07-23T02:56:45;24.00;57.80
27188;DHT22;14708;50.872;5.306;2022-07-23T02:59:11;24.10;57.90
27188;DHT22;14708;50.872;5.306;2022-07-23T03:01:37;24.00;57.90
27188;DHT22;14708;50.872;5.306;2022-07-23T03:04:03;24.00;57.80
27188;DHT22;14708;50.872;5.306;2022-07-23T03:06:28;24.00;57.90
27188;DHT22;14708;50.872;5.306;2022-07-23T03:08:54;24.00;58.00
27188;DHT22;14708;50.872;5.306;2022-07-23T03:11:20;24.00;58.00
27188;DHT22;14708;50.872;5.306;2022-07-23T03:13:45;24.00;58.00
27188;DHT22;14708;50.872;5.306;2022-07-23T03:16:11;24.00;58.00
27188;DHT22;14708;50.872;5.306;2022-07-23T03:18:37;24.00;57.90
27188;DHT22;14708;50.872;5.306;2022-07-23T03:21:02;24.00;57.90
27188;DHT22;14708;50.872;5.306;2022-07-23T03:23:28;24.00;58.00
27188;DHT22;14708;50.872;5.306;2022-07-23T03:25:54;24.00;58.00
27188;DHT22;14708;50.872;5.306;2022-07-23T03:28:19;24.00;58.10
27188;DHT22;14708;50.872;5.306;2022-07-23T03:30:46;24.00;58.10
27188;DHT22;14708;50.872;5.306;2022-07-23T03:33:14;24.00;58.00
27188;DHT22;14708;50.872;5.306;2022-07-23T03:35:42;24.00;58.10
27188;DHT22;14708;50.872;5.306;2022-07-23T03:38:07;24.00;58.10
27188;DHT22;14708;50.872;5.306;2022-07-23T03:40:33;24.00;58.10
27188;DHT22;14708;50.872;5.306;2022-07-23T03:42:59;23.90;58.20
27188;DHT22;14708;50.872;5.306;2022-07-23T03:45:24;24.00;58.10
27188;DHT22;14708;50.872;5.306;2022-07-23T03:47:50;23.90;58.20
27188;DHT22;14708;50.872;5.306;2022-07-23T03:50:15;23.90;58.20
27188;DHT22;14708;50.872;5.306;2022-07-23T03:52:41;23.90;58.10
27188;DHT22;14708;50.872;5.306;2022-07-23T03:55:07;23.90;58.00
27188;DHT22;14708;50.872;5.306;2022-07-23T03:57:33;23.90;58.10
27188;DHT22;14708;50.872;5.306;2022-07-23T03:59:58;23.90;58.20
27188;DHT22;14708;50.872;5.306;2022-07-23T04:02:24;23.90;58.10
27188;DHT22;14708;50.872;5.306;2022-07-23T04:04:50;23.90;58.30
27188;DHT22;14708;50.872;5.306;2022-07-23T04:07:15;23.90;58.10
27188;DHT22;14708;50.872;5.306;2022-07-23T04:09:43;23.90;58.20
27188;DHT22;14708;50.872;5.306;2022-07-23T04:12:08;23.90;58.40
27188;DHT22;14708;50.872;5.306;2022-07-23T04:14:34;23.90;58.50
27188;DHT22;14708;50.872;5.306;2022-07-23T04:17:00;23.90;58.40
27188;DHT22;14708;50.872;5.306;2022-07-23T04:19:26;23.90;58.40
27188;DHT22;14708;50.872;5.306;2022-07-23T04:21:52;23.90;58.40
27188;DHT22;14708;50.872;5.306;2022-07-23T04:24:18;23.90;58.30
27188;DHT22;14708;50.872;5.306;2022-07-23T04:26:44;23.90;58.40
27188;DHT22;14708;50.872;5.306;2022-07-23T04:29:10;23.90;58.40
27188;DHT22;14708;50.872;5.306;2022-07-23T04:31:36;23.90;58.50
27188;DHT22;14708;50.872;5.306;2022-07-23T04:34:02;23.90;58.30
27188;DHT22;14708;50.872;5.306;2022-07-23T04:36:27;23.90;58.40
27188;DHT22;14708;50.872;5.306;2022-07-23T04:38:54;23.90;58.30
27188;DHT22;14708;50.872;5.306;2022-07-23T04:41:20;23.90;58.30
27188;DHT22;14708;50.872;5.306;2022-07-23T04:43:46;23.90;58.40
27188;DHT22;14708;50.872;5.306;2022-07-23T04:46:11;23.90;58.30
27188;DHT22;14708;50.872;5.306;2022-07-23T04:48:37;23.90;58.40
27188;DHT22;14708;50.872;5.306;2022-07-23T04:51:03;23.90;58.40
27188;DHT22;14708;50.872;5.306;2022-07-23T04:53:29;23.90;58.40
27188;DHT22;14708;50.872;5.306;2022-07-23T04:55:55;23.90;58.20
27188;DHT22;14708;50.872;5.306;2022-07-23T04:58:21;23.90;58.20
27188;DHT22;14708;50.872;5.306;2022-07-23T05:00:47;23.90;58.00
27188;DHT22;14708;50.872;5.306;2022-07-23T05:03:12;23.90;58.10
27188;DHT22;14708;50.872;5.306;2022-07-23T05:05:38;23.90;58.10
27188;DHT22;14708;50.872;5.306;2022-07-23T05:08:04;24.00;58.10
27188;DHT22;14708;50.872;5.306;2022-07-23T05:10:30;24.00;58.20
27188;DHT22;14708;50.872;5.306;2022-07-23T05:12:56;24.00;58.20
27188;DHT22;14708;50.872;5.306;2022-07-23T05:15:22;24.00;58.10
27188;DHT22;14708;50.872;5.306;2022-07-23T05:17:47;24.00;58.00
27188;DHT22;14708;50.872;5.306;2022-07-23T05:20:13;24.10;57.90
27188;DHT22;14708;50.872;5.306;2022-07-23T05:22:39;24.10;58.00
27188;DHT22;14708;50.872;5.306;2022-07-23T05:25:05;24.10;57.80
27188;DHT22;14708;50.872;5.306;2022-07-23T05:27:31;24.10;57.90
27188;DHT22;14708;50.872;5.306;2022-07-23T05:29:57;24.10;57.80
27188;DHT22;14708;50.872;5.306;2022-07-23T05:32:23;24.10;57.80
27188;DHT22;14708;50.872;5.306;2022-07-23T05:34:49;24.20;57.90
27188;DHT22;14708;50.872;5.306;2022-07-23T05:37:15;24.20;57.90
27188;DHT22;14708;50.872;5.306;2022-07-23T05:39:40;24.20;57.80
27188;DHT22;14708;50.872;5.306;2022-07-23T05:42:06;24.20;57.70
27188;DHT22;14708;50.872;5.306;2022-07-23T05:44:31;24.30;57.80
27188;DHT22;14708;50.872;5.306;2022-07-23T05:46:57;24.30;57.30
27188;DHT22;14708;50.872;5.306;2022-07-23T05:49:22;24.30;56.90
27188;DHT22;14708;50.872;5.306;2022-07-23T05:51:48;24.30;56.70
27188;DHT22;14708;50.872;5.306;2022-07-23T05:54:14;24.30;56.70
27188;DHT22;14708;50.872;5.306;2022-07-23T05:56:39;24.30;56.40
27188;DHT22;14708;50.872;5.306;2022-07-23T05:59:05;24.50;56.40
27188;DHT22;14708;50.872;5.306;2022-07-23T06:01:31;24.50;56.30
27188;DHT22;14708;50.872;5.306;2022-07-23T06:03:57;24.50;56.30
27188;DHT22;14708;50.872;5.306;2022-07-23T06:06:22;24.50;56.50
27188;DHT22;14708;50.872;5.306;2022-07-23T06:08:48;24.60;56.80
27188;DHT22;14708;50.872;5.306;2022-07-23T06:11:16;24.50;56.10
27188;DHT22;14708;50.872;5.306;2022-07-23T06:13:41;24.50;55.80
27188;DHT22;14708;50.872;5.306;2022-07-23T06:16:07;24.30;56.20
27188;DHT22;14708;50.872;5.306;2022-07-23T06:18:33;24.30;56.50
27188;DHT22;14708;50.872;5.306;2022-07-23T06:20:58;24.30;56.60
27188;DHT22;14708;50.872;5.306;2022-07-23T06:23:24;24.30;56.80
27188;DHT22;14708;50.872;5.306;2022-07-23T06:25:49;24.40;56.80
27188;DHT22;14708;50.872;5.306;2022-07-23T06:28:15;24.30;56.90
27188;DHT22;14708;50.872;5.306;2022-07-23T06:30:41;24.30;57.60
27188;DHT22;14708;50.872;5.306;2022-07-23T06:33:06;24.30;57.50
27188;DHT22;14708;50.872;5.306;2022-07-23T06:35:32;24.30;57.30
27188;DHT22;14708;50.872;5.306;2022-07-23T06:37:59;24.40;57.00
27188;DHT22;14708;50.872;5.306;2022-07-23T06:40:24;24.30;57.00
27188;DHT22;14708;50.872;5.306;2022-07-23T06:42:50;24.40;57.30
27188;DHT22;14708;50.872;5.306;2022-07-23T06:45:15;24.50;56.50
27188;DHT22;14708;50.872;5.306;2022-07-23T06:47:41;24.30;56.40
27188;DHT22;14708;50.872;5.306;2022-07-23T06:50:07;24.30;56.80
27188;DHT22;14708;50.872;5.306;2022-07-23T06:52:33;24.30;57.10
27188;DHT22;14708;50.872;5.306;2022-07-23T06:54:58;24.30;57.50
27188;DHT22;14708;50.872;5.306;2022-07-23T06:57:24;24.40;57.80
27188;DHT22;14708;50.872;5.306;2022-07-23T06:59:51;24.40;57.30
27188;DHT22;14708;50.872;5.306;2022-07-23T07:02:17;24.40;57.10
27188;DHT22;14708;50.872;5.306;2022-07-23T07:04:42;24.40;57.40
27188;DHT22;14708;50.872;5.306;2022-07-23T07:07:08;24.40;57.50
27188;DHT22;14708;50.872;5.306;2022-07-23T07:09:33;24.40;57.40
27188;DHT22;14708;50.872;5.306;2022-07-23T07:11:59;24.40;56.90
27188;DHT22;14708;50.872;5.306;2022-07-23T07:14:25;24.30;56.80
27188;DHT22;14708;50.872;5.306;2022-07-23T07:16:50;24.30;56.90
27188;DHT22;14708;50.872;5.306;2022-07-23T07:19:16;24.30;57.20
27188;DHT22;14708;50.872;5.306;2022-07-23T07:21:41;24.20;57.30
27188;DHT22;14708;50.872;5.306;2022-07-23T07:24:07;24.20;57.40
27188;DHT22;14708;50.872;5.306;2022-07-23T07:26:34;24.10;57.40
27188;DHT22;14708;50.872;5.306;2022-07-23T07:28:59;24.00;57.60
27188;DHT22;14708;50.872;5.306;2022-07-23T07:31:25;24.00;58.30
27188;DHT22;14708;50.872;5.306;2022-07-23T07:33:51;24.10;58.40
27188;DHT22;14708;50.872;5.306;2022-07-23T07:36:17;24.10;59.30
27188;DHT22;14708;50.872;5.306;2022-07-23T07:38:42;24.10;59.20
27188;DHT22;14708;50.872;5.306;2022-07-23T07:41:08;24.00;59.10
27188;DHT22;14708;50.872;5.306;2022-07-23T07:43:36;24.00;59.20
27188;DHT22;14708;50.872;5.306;2022-07-23T07:46:02;24.00;58.90
27188;DHT22;14708;50.872;5.306;2022-07-23T07:48:28;24.10;59.00
27188;DHT22;14708;50.872;5.306;2022-07-23T07:50:53;24.10;58.90
27188;DHT22;14708;50.872;5.306;2022-07-23T07:53:19;24.10;58.50
27188;DHT22;14708;50.872;5.306;2022-07-23T07:55:45;24.10;58.40
27188;DHT22;14708;50.872;5.306;2022-07-23T07:58:11;24.20;58.40
27188;DHT22;14708;50.872;5.306;2022-07-23T08:00:36;24.20;57.90
27188;DHT22;14708;50.872;5.306;2022-07-23T08:03:02;24.20;57.90
27188;DHT22;14708;50.872;5.306;2022-07-23T08:05:29;24.20;58.00
27188;DHT22;14708;50.872;5.306;2022-07-23T08:07:56;24.20;58.20
27188;DHT22;14708;50.872;5.306;2022-07-23T08:10:23;24.20;57.90
27188;DHT22;14708;50.872;5.306;2022-07-23T08:12:51;24.30;58.10
27188;DHT22;14708;50.872;5.306;2022-07-23T08:15:19;24.30;58.00
27188;DHT22;14708;50.872;5.306;2022-07-23T08:17:46;24.20;58.00
27188;DHT22;14708;50.872;5.306;2022-07-23T08:20:13;24.20;58.30
27188;DHT22;14708;50.872;5.306;2022-07-23T08:22:58;24.20;58.40
27188;DHT22;14708;50.872;5.306;2022-07-23T08:25:33;24.10;58.50
27188;DHT22;14708;50.872;5.306;2022-07-23T08:28:00;24.20;58.70
27188;DHT22;14708;50.872;5.306;2022-07-23T08:30:27;24.20;58.20
27188;DHT22;14708;50.872;5.306;2022-07-23T08:32:58;24.20;57.90
27188;DHT22;14708;50.872;5.306;2022-07-23T08:35:31;24.30;58.20
27188;DHT22;14708;50.872;5.306;2022-07-23T08:37:58;24.20;58.00
27188;DHT22;14708;50.872;5.306;2022-07-23T08:40:30;24.30;58.00
27188;DHT22;14708;50.872;5.306;2022-07-23T08:42:56;24.30;58.50
27188;DHT22;14708;50.872;5.306;2022-07-23T08:45:24;24.30;58.50
27188;DHT22;14708;50.872;5.306;2022-07-23T08:47:54;24.30;58.00
27188;DHT22;14708;50.872;5.306;2022-07-23T08:50:21;24.30;57.60
27188;DHT22;14708;50.872;5.306;2022-07-23T08:52:48;24.30;57.30
27188;DHT22;14708;50.872;5.306;2022-07-23T08:55:17;24.30;57.20
27188;DHT22;14708;50.872;5.306;2022-07-23T08:57:43;24.40;57.10
27188;DHT22;14708;50.872;5.306;2022-07-23T09:00:09;24.40;57.70
27188;DHT22;14708;50.872;5.306;2022-07-23T09:02:40;24.40;57.80
27188;DHT22;14708;50.872;5.306;2022-07-23T09:05:06;24.50;56.60
27188;DHT22;14708;50.872;5.306;2022-07-23T09:07:32;24.50;56.60
27188;DHT22;14708;50.872;5.306;2022-07-23T09:10:08;24.50;56.60
27188;DHT22;14708;50.872;5.306;2022-07-23T09:12:37;24.50;56.40
27188;DHT22;14708;50.872;5.306;2022-07-23T09:15:07;24.50;56.60
27188;DHT22;14708;50.872;5.306;2022-07-23T09:17:42;24.50;56.50
27188;DHT22;14708;50.872;5.306;2022-07-23T09:20:14;24.50;56.10
27188;DHT22;14708;50.872;5.306;2022-07-23T09:22:44;24.40;56.20
27188;DHT22;14708;50.872;5.306;2022-07-23T09:25:14;24.40;56.60
27188;DHT22;14708;50.872;5.306;2022-07-23T09:27:59;24.40;56.60
27188;DHT22;14708;50.872;5.306;2022-07-23T09:30:30;24.40;56.50
27188;DHT22;14708;50.872;5.306;2022-07-23T09:33:08;24.50;56.60
27188;DHT22;14708;50.872;5.306;2022-07-23T09:36:03;24.60;56.80
27188;DHT22;14708;50.872;5.306;2022-07-23T09:38:29;24.50;56.60
27188;DHT22;14708;50.872;5.306;2022-07-23T09:43:32;24.50;57.60
27188;DHT22;14708;50.872;5.306;2022-07-23T09:46:26;24.50;57.70
27188;DHT22;14708;50.872;5.306;2022-07-23T09:48:55;24.50;57.30
27188;DHT22;14708;50.872;5.306;2022-07-23T09:51:22;24.50;57.10
27188;DHT22;14708;50.872;5.306;2022-07-23T09:53:48;24.40;57.60
27188;DHT22;14708;50.872;5.306;2022-07-23T09:56:14;24.50;58.60
27188;DHT22;14708;50.872;5.306;2022-07-23T09:58:58;24.60;59.10
27188;DHT22;14708;50.872;5.306;2022-07-23T10:01:38;24.60;59.80
27188;DHT22;14708;50.872;5.306;2022-07-23T10:04:04;24.70;61.00
27188;DHT22;14708;50.872;5.306;2022-07-23T10:06:31;24.70;61.10
27188;DHT22;14708;50.872;5.306;2022-07-23T10:08:58;24.70;61.20
27188;DHT22;14708;50.872;5.306;2022-07-23T10:11:27;24.70;62.30
27188;DHT22;14708;50.872;5.306;2022-07-23T10:13:53;24.70;62.10
27188;DHT22;14708;50.872;5.306;2022-07-23T10:16:25;24.70;63.20
27188;DHT22;14708;50.872;5.306;2022-07-23T10:18:59;24.70;63.20
27188;DHT22;14708;50.872;5.306;2022-07-23T10:21:37;24.70;63.30
27188;DHT22;14708;50.872;5.306;2022-07-23T10:24:18;24.70;63.50
27188;DHT22;14708;50.872;5.306;2022-07-23T10:26:55;24.70;63.60
27188;DHT22;14708;50.872;5.306;2022-07-23T10:29:45;24.90;63.00
27188;DHT22;14708;50.872;5.306;2022-07-23T10:32:35;24.90;62.60
27188;DHT22;14708;50.872;5.306;2022-07-23T10:37:47;25.00;62.80
27188;DHT22;14708;50.872;5.306;2022-07-23T10:40:15;24.80;62.60
27188;DHT22;14708;50.872;5.306;2022-07-23T10:42:43;24.90;62.80
27188;DHT22;14708;50.872;5.306;2022-07-23T10:45:29;24.80;62.80
27188;DHT22;14708;50.872;5.306;2022-07-23T10:50:36;24.90;62.40
27188;DHT22;14708;50.872;5.306;2022-07-23T10:53:17;24.90;62.30
27188;DHT22;14708;50.872;5.306;2022-07-23T10:55:46;24.90;62.30
27188;DHT22;14708;50.872;5.306;2022-07-23T10:58:18;24.90;59.70
27188;DHT22;14708;50.872;5.306;2022-07-23T11:00:44;24.80;60.40
27188;DHT22;14708;50.872;5.306;2022-07-23T11:03:32;24.70;60.30
27188;DHT22;14708;50.872;5.306;2022-07-23T11:05:58;24.70;59.60
27188;DHT22;14708;50.872;5.306;2022-07-23T11:08:23;24.70;59.50
27188;DHT22;14708;50.872;5.306;2022-07-23T11:16:15;24.70;58.20
27188;DHT22;14708;50.872;5.306;2022-07-23T11:26:43;24.70;58.20
27188;DHT22;14708;50.872;5.306;2022-07-23T11:32:08;24.70;58.40
27188;DHT22;14708;50.872;5.306;2022-07-23T11:34:47;24.70;58.20
27188;DHT22;14708;50.872;5.306;2022-07-23T11:40:00;24.80;58.50
27188;DHT22;14708;50.872;5.306;2022-07-23T11:42:26;24.80;58.20
27188;DHT22;14708;50.872;5.306;2022-07-23T11:44:51;24.80;58.00
27188;DHT22;14708;50.872;5.306;2022-07-23T11:47:22;24.90;57.90
27188;DHT22;14708;50.872;5.306;2022-07-23T11:49:55;24.90;58.00
27188;DHT22;14708;50.872;5.306;2022-07-23T11:52:22;24.80;58.00
27188;DHT22;14708;50.872;5.306;2022-07-23T11:54:56;24.80;58.10
27188;DHT22;14708;50.872;5.306;2022-07-23T11:57:29;24.80;58.10
27188;DHT22;14708;50.872;5.306;2022-07-23T11:59:58;24.90;57.80
27188;DHT22;14708;50.872;5.306;2022-07-23T12:02:25;24.80;57.70
27188;DHT22;14708;50.872;5.306;2022-07-23T12:04:52;24.90;57.70
27188;DHT22;14708;50.872;5.306;2022-07-23T12:09:55;24.90;57.70
27188;DHT22;14708;50.872;5.306;2022-07-23T12:12:22;24.90;57.60
27188;DHT22;14708;50.872;5.306;2022-07-23T12:14:56;25.00;57.40
27188;DHT22;14708;50.872;5.306;2022-07-23T12:17:30;24.90;57.60
27188;DHT22;14708;50.872;5.306;2022-07-23T12:20:00;24.90;57.70
27188;DHT22;14708;50.872;5.306;2022-07-23T12:22:41;24.90;57.70
27188;DHT22;14708;50.872;5.306;2022-07-23T12:25:12;24.90;57.70
27188;DHT22;14708;50.872;5.306;2022-07-23T12:27:38;24.90;57.80
27188;DHT22;14708;50.872;5.306;2022-07-23T12:30:24;24.90;57.70
27188;DHT22;14708;50.872;5.306;2022-07-23T12:32:54;24.90;57.60
27188;DHT22;14708;50.872;5.306;2022-07-23T12:35:21;24.90;57.50
27188;DHT22;14708;50.872;5.306;2022-07-23T12:37:49;24.90;57.20
27188;DHT22;14708;50.872;5.306;2022-07-23T12:42:58;24.90;56.70
27188;DHT22;14708;50.872;5.306;2022-07-23T12:45:25;24.90;56.60
27188;DHT22;14708;50.872;5.306;2022-07-23T12:48:03;24.90;56.60
27188;DHT22;14708;50.872;5.306;2022-07-23T12:50:48;24.90;56.60
27188;DHT22;14708;50.872;5.306;2022-07-23T12:55:47;24.90;56.60
27188;DHT22;14708;50.872;5.306;2022-07-23T12:58:16;24.90;56.30
27188;DHT22;14708;50.872;5.306;2022-07-23T13:03:38;24.90;56.30
27188;DHT22;14708;50.872;5.306;2022-07-23T13:06:06;24.90;56.10
27188;DHT22;14708;50.872;5.306;2022-07-23T13:08:33;25.00;56.20
27188;DHT22;14708;50.872;5.306;2022-07-23T13:10:59;25.00;55.80
27188;DHT22;14708;50.872;5.306;2022-07-23T13:13:27;25.00;55.80
27188;DHT22;14708;50.872;5.306;2022-07-23T13:15:53;25.00;56.00
27188;DHT22;14708;50.872;5.306;2022-07-23T13:18:20;25.00;55.90
27188;DHT22;14708;50.872;5.306;2022-07-23T13:20:47;25.00;56.00
27188;DHT22;14708;50.872;5.306;2022-07-23T13:23:13;25.00;56.10
27188;DHT22;14708;50.872;5.306;2022-07-23T13:25:40;24.90;56.00
27188;DHT22;14708;50.872;5.306;2022-07-23T13:28:06;24.90;56.00
27188;DHT22;14708;50.872;5.306;2022-07-23T13:30:31;24.90;56.10
27188;DHT22;14708;50.872;5.306;2022-07-23T13:32:57;25.00;56.40
27188;DHT22;14708;50.872;5.306;2022-07-23T13:35:23;25.00;56.20
27188;DHT22;14708;50.872;5.306;2022-07-23T13:37:49;25.00;56.10
27188;DHT22;14708;50.872;5.306;2022-07-23T13:40:15;25.00;55.50
27188;DHT22;14708;50.872;5.306;2022-07-23T13:42:40;25.00;55.60
27188;DHT22;14708;50.872;5.306;2022-07-23T13:45:06;25.00;55.40
27188;DHT22;14708;50.872;5.306;2022-07-23T13:47:32;24.90;55.50
27188;DHT22;14708;50.872;5.306;2022-07-23T13:49:58;25.00;55.60
27188;DHT22;14708;50.872;5.306;2022-07-23T13:52:26;25.00;55.60
27188;DHT22;14708;50.872;5.306;2022-07-23T13:54:52;25.00;55.70
27188;DHT22;14708;50.872;5.306;2022-07-23T13:57:17;25.00;55.40
27188;DHT22;14708;50.872;5.306;2022-07-23T13:59:43;25.00;55.50
27188;DHT22;14708;50.872;5.306;2022-07-23T14:02:09;25.00;55.60
27188;DHT22;14708;50.872;5.306;2022-07-23T14:04:35;25.00;55.60
27188;DHT22;14708;50.872;5.306;2022-07-23T14:07:01;25.00;55.50
27188;DHT22;14708;50.872;5.306;2022-07-23T14:09:26;25.00;55.50
27188;DHT22;14708;50.872;5.306;2022-07-23T14:11:52;25.00;55.40
27188;DHT22;14708;50.872;5.306;2022-07-23T14:14:18;25.00;55.40
27188;DHT22;14708;50.872;5.306;2022-07-23T14:16:44;25.10;55.20
27188;DHT22;14708;50.872;5.306;2022-07-23T14:19:10;25.10;55.40
27188;DHT22;14708;50.872;5.306;2022-07-23T14:21:36;25.10;55.20
27188;DHT22;14708;50.872;5.306;2022-07-23T14:24:02;25.10;54.90
27188;DHT22;14708;50.872;5.306;2022-07-23T14:26:28;25.10;54.80
27188;DHT22;14708;50.872;5.306;2022-07-23T14:28:54;25.10;54.80
27188;DHT22;14708;50.872;5.306;2022-07-23T14:31:19;25.20;54.50
27188;DHT22;14708;50.872;5.306;2022-07-23T14:33:45;25.20;54.70
27188;DHT22;14708;50.872;5.306;2022-07-23T14:36:10;25.20;54.50
27188;DHT22;14708;50.872;5.306;2022-07-23T14:38:38;25.10;54.50
27188;DHT22;14708;50.872;5.306;2022-07-23T14:41:06;25.10;54.60
27188;DHT22;14708;50.872;5.306;2022-07-23T14:43:33;25.10;54.60
27188;DHT22;14708;50.872;5.306;2022-07-23T14:45:59;25.20;54.50
27188;DHT22;14708;50.872;5.306;2022-07-23T14:48:25;25.20;54.70
27188;DHT22;14708;50.872;5.306;2022-07-23T14:50:51;25.20;54.60
27188;DHT22;14708;50.872;5.306;2022-07-23T14:53:17;25.20;54.60
27188;DHT22;14708;50.872;5.306;2022-07-23T14:55:42;25.20;54.50
27188;DHT22;14708;50.872;5.306;2022-07-23T14:58:08;25.20;54.10
27188;DHT22;14708;50.872;5.306;2022-07-23T15:00:34;25.30;54.10
27188;DHT22;14708;50.872;5.306;2022-07-23T15:03:00;25.20;54.00
27188;DHT22;14708;50.872;5.306;2022-07-23T15:05:25;25.20;54.20
27188;DHT22;14708;50.872;5.306;2022-07-23T15:07:51;25.30;54.30
27188;DHT22;14708;50.872;5.306;2022-07-23T15:10:16;25.30;54.40
27188;DHT22;14708;50.872;5.306;2022-07-23T15:12:42;25.30;54.30
27188;DHT22;14708;50.872;5.306;2022-07-23T15:15:08;25.30;53.90
27188;DHT22;14708;50.872;5.306;2022-07-23T15:17:34;25.30;54.10
27188;DHT22;14708;50.872;5.306;2022-07-23T15:20:00;25.30;54.40
27188;DHT22;14708;50.872;5.306;2022-07-23T15:22:25;25.30;54.20
27188;DHT22;14708;50.872;5.306;2022-07-23T15:24:51;25.20;54.10
27188;DHT22;14708;50.872;5.306;2022-07-23T15:27:17;25.30;54.10
27188;DHT22;14708;50.872;5.306;2022-07-23T15:29:44;25.30;54.50
27188;DHT22;14708;50.872;5.306;2022-07-23T15:32:10;25.30;54.40
27188;DHT22;14708;50.872;5.306;2022-07-23T15:34:39;25.30;54.60
27188;DHT22;14708;50.872;5.306;2022-07-23T15:37:04;25.30;54.40
27188;DHT22;14708;50.872;5.306;2022-07-23T15:39:31;25.30;54.70
27188;DHT22;14708;50.872;5.306;2022-07-23T15:41:59;25.30;55.10
27188;DHT22;14708;50.872;5.306;2022-07-23T15:44:25;25.40;55.40
27188;DHT22;14708;50.872;5.306;2022-07-23T15:46:50;25.50;55.80
27188;DHT22;14708;50.872;5.306;2022-07-23T15:49:16;25.40;55.70
27188;DHT22;14708;50.872;5.306;2022-07-23T15:51:42;25.50;55.70
27188;DHT22;14708;50.872;5.306;2022-07-23T15:54:08;25.50;55.90
27188;DHT22;14708;50.872;5.306;2022-07-23T15:56:33;25.50;56.00
27188;DHT22;14708;50.872;5.306;2022-07-23T15:58:59;25.50;55.90
27188;DHT22;14708;50.872;5.306;2022-07-23T16:01:24;25.60;56.10
27188;DHT22;14708;50.872;5.306;2022-07-23T16:03:50;25.60;56.00
27188;DHT22;14708;50.872;5.306;2022-07-23T16:06:16;25.60;55.90
27188;DHT22;14708;50.872;5.306;2022-07-23T16:08:51;25.60;55.30